Time;durP1;ratioP1;P1;durP2;ratioP2;P2;SDS_P1;SDS_P2;PMS_P1;PMS_P2;Temp;Humidity;BMP_temperature;BMP_pressure;BME280_temperature;BME280_humidity;BME280_pressure;Samples;Min_cycle;Max_cycle;Signal;HPM_P1;HPM_P2
2021/12/05 00:17:42;;;;;;;11.60;8.50;;;;;;;;;;5034646;28;20403;-55
2021/12/05 00:20:37;;;;;;;11.70;9.33;;;;;;;;;;5034149;28;20460;-55
2021/12/05 00:22:58;;;;;;;8.30;6.17;;;;;;;;;;5034178;28;20940;-58
2021/12/05 00:25:28;;;;;;;14.00;10.60;;;;;;;;;;5034449;28;20508;-54
2021/12/05 00:39:08;;;;;;;12.47;10.53;;;;;;;;;;5022992;28;20905;-56
2021/12/05 00:41:43;;;;;;;11.67;10.13;;;;;;;;;;5033799;28;20412;-63
2021/12/05 00:47:05;;;;;;;12.10;10.30;;;;;;;;;;5033975;28;20401;-54
2021/12/05 00:49:51;;;;;;;14.03;11.17;;;;;;;;;;5033830;28;20467;-54
2021/12/05 01:01:41;;;;;;;14.53;11.63;;;;;;;;;;5033918;28;20415;-52
2021/12/05 01:16:48;;;;;;;9.80;8.80;;;;;;;;;;5025336;28;20459;-53
2021/12/05 01:19:16;;;;;;;11.73;8.37;;;;;;;;;;5033057;28;20565;-53
2021/12/05 01:21:43;;;;;;;10.50;9.40;;;;;;;;;;5033367;28;21089;-56
2021/12/05 01:24:46;;;;;;;12.20;10.23;;;;;;;;;;5033205;28;20781;-52
2021/12/05 01:32:35;;;;;;;14.47;10.40;;;;;;;;;;5033000;28;20881;-56
2021/12/05 01:35:30;;;;;;;13.90;10.63;;;;;;;;;;5033098;28;20467;-57
2021/12/05 01:38:10;;;;;;;11.57;9.80;;;;;;;;;;5033260;28;20396;-53
2021/12/05 01:40:55;;;;;;;7.93;7.07;;;;;;;;;;5033076;28;20911;-53
2021/12/05 01:44:02;;;;;;;8.80;8.00;;;;;;;;;;5032962;28;20908;-53
2021/12/05 02:00:23;;;;;;;8.40;7.53;;;;;;;;;;5033298;28;20416;-60
2021/12/05 02:33:03;;;;;;;10.27;9.23;;;;;;;;;;5036138;28;20475;-53
2021/12/05 02:42:56;;;;;;;9.23;8.17;;;;;;;;;;5036053;28;20928;-56
2021/12/05 02:45:22;;;;;;;9.83;7.63;;;;;;;;;;5036109;28;20428;-56
2021/12/05 02:47:51;;;;;;;10.53;8.77;;;;;;;;;;5035613;28;20419;-54
2021/12/05 02:50:18;;;;;;;8.77;7.90;;;;;;;;;;5035891;28;20416;-53
2021/12/05 02:52:44;;;;;;;9.07;8.20;;;;;;;;;;5035774;28;20678;-56
2021/12/05 02:55:17;;;;;;;7.70;6.90;;;;;;;;;;5035474;28;20897;-52
2021/12/05 03:00:13;;;;;;;8.87;7.90;;;;;;;;;;5035586;28;20416;-54
2021/12/05 03:02:43;;;;;;;8.03;7.10;;;;;;;;;;5035354;28;20416;-54
2021/12/05 03:05:13;;;;;;;11.60;7.93;;;;;;;;;;5035560;28;20777;-55
2021/12/05 03:07:41;;;;;;;8.40;7.60;;;;;;;;;;5035386;28;20403;-57
2021/12/05 03:10:08;;;;;;;8.30;7.00;;;;;;;;;;5035146;28;20419;-52
2021/12/05 03:12:36;;;;;;;8.00;7.30;;;;;;;;;;5033839;28;20529;-53
2021/12/05 03:15:04;;;;;;;7.90;7.20;;;;;;;;;;5034998;28;20927;-52
2021/12/05 03:17:30;;;;;;;7.90;7.13;;;;;;;;;;5035118;28;20550;-53
2021/12/05 03:19:56;;;;;;;9.63;6.60;;;;;;;;;;5035034;28;20475;-53
2021/12/05 03:22:22;;;;;;;12.10;6.90;;;;;;;;;;5035273;28;20897;-56
2021/12/05 03:24:48;;;;;;;11.33;6.53;;;;;;;;;;5034944;28;20412;-55
2021/12/05 03:27:14;;;;;;;13.43;6.10;;;;;;;;;;5034962;28;20466;-54
2021/12/05 03:29:40;;;;;;;5.43;5.00;;;;;;;;;;5034924;28;20470;-52
2021/12/05 03:32:07;;;;;;;8.27;6.03;;;;;;;;;;5034591;28;20470;-52
2021/12/05 03:34:33;;;;;;;8.17;6.33;;;;;;;;;;5035003;28;20415;-53
2021/12/05 03:36:59;;;;;;;6.70;6.10;;;;;;;;;;5034759;28;20416;-53
2021/12/05 03:39:26;;;;;;;5.70;5.20;;;;;;;;;;5034870;28;20500;-51
2021/12/05 03:41:53;;;;;;;8.83;6.60;;;;;;;;;;5034965;28;20463;-52
2021/12/05 03:44:20;;;;;;;5.33;4.93;;;;;;;;;;5034664;28;20397;-54
2021/12/05 03:46:47;;;;;;;9.20;6.07;;;;;;;;;;5034463;28;20420;-51
2021/12/05 03:49:13;;;;;;;8.70;6.60;;;;;;;;;;5034477;28;20409;-52
2021/12/05 03:51:42;;;;;;;6.80;6.00;;;;;;;;;;5034434;28;20948;-52
2021/12/05 03:54:09;;;;;;;7.27;5.73;;;;;;;;;;5034359;28;20424;-54
2021/12/05 03:56:36;;;;;;;8.60;6.30;;;;;;;;;;5034446;28;20405;-52
2021/12/05 03:59:02;;;;;;;11.00;6.60;;;;;;;;;;5033045;28;20547;-51
2021/12/05 04:01:29;;;;;;;8.07;5.47;;;;;;;;;;5034468;28;20413;-52
2021/12/05 04:03:55;;;;;;;12.20;6.73;;;;;;;;;;5034416;28;20500;-52
2021/12/05 04:06:22;;;;;;;7.80;5.80;;;;;;;;;;5034358;28;20476;-53
2021/12/05 04:08:48;;;;;;;8.50;6.53;;;;;;;;;;5034271;28;20397;-54
2021/12/05 04:11:16;;;;;;;12.40;7.07;;;;;;;;;;5034300;28;20431;-53
2021/12/05 04:13:43;;;;;;;10.07;7.00;;;;;;;;;;5034103;28;20419;-53
2021/12/05 04:16:09;;;;;;;7.50;5.90;;;;;;;;;;5032718;28;20416;-54
2021/12/05 04:18:35;;;;;;;8.67;6.37;;;;;;;;;;5033815;28;20412;-54
2021/12/05 04:21:02;;;;;;;14.77;7.33;;;;;;;;;;5033922;28;20495;-54
2021/12/05 04:23:29;;;;;;;10.33;6.43;;;;;;;;;;5033764;28;20408;-55
2021/12/05 04:25:55;;;;;;;8.60;6.60;;;;;;;;;;5034042;28;20420;-54
2021/12/05 04:28:22;;;;;;;15.50;7.03;;;;;;;;;;5033809;28;20503;-57
2021/12/05 04:30:48;;;;;;;6.80;6.10;;;;;;;;;;5032406;28;20427;-52
2021/12/05 04:33:14;;;;;;;14.20;7.13;;;;;;;;;;5033590;28;20472;-53
2021/12/05 04:35:40;;;;;;;10.20;7.40;;;;;;;;;;5033574;28;20882;-52
2021/12/05 04:38:06;;;;;;;14.27;7.40;;;;;;;;;;5033689;28;20420;-56
2021/12/05 04:40:33;;;;;;;11.97;7.00;;;;;;;;;;5033506;28;20412;-55
2021/12/05 04:43:00;;;;;;;8.90;6.77;;;;;;;;;;5032866;28;20503;-55
2021/12/05 04:45:27;;;;;;;14.33;6.83;;;;;;;;;;5033707;28;20909;-55
2021/12/05 04:47:54;;;;;;;12.67;6.80;;;;;;;;;;5033636;28;20470;-53
2021/12/05 04:50:20;;;;;;;12.03;7.33;;;;;;;;;;5033159;28;20404;-52
2021/12/05 04:52:46;;;;;;;9.13;6.40;;;;;;;;;;5032929;28;20572;-52
2021/12/05 04:55:13;;;;;;;8.23;5.80;;;;;;;;;;5031836;28;20413;-56
2021/12/05 04:57:41;;;;;;;9.17;7.10;;;;;;;;;;5033001;28;20499;-57
2021/12/05 05:00:12;;;;;;;8.40;5.50;;;;;;;;;;5031791;28;20423;-53
2021/12/05 05:02:39;;;;;;;10.63;6.57;;;;;;;;;;5032949;28;20413;-58
2021/12/05 05:05:05;;;;;;;9.83;6.67;;;;;;;;;;5033049;28;20511;-56
2021/12/05 05:07:31;;;;;;;8.13;6.50;;;;;;;;;;5032966;28;20416;-60
2021/12/05 05:09:59;;;;;;;9.97;6.40;;;;;;;;;;5033046;28;20412;-53
2021/12/05 05:12:26;;;;;;;11.53;5.63;;;;;;;;;;5032909;28;20829;-57
2021/12/05 05:14:53;;;;;;;6.73;5.70;;;;;;;;;;5032694;28;20415;-56
2021/12/05 05:17:20;;;;;;;6.93;5.70;;;;;;;;;;5032638;28;20412;-54
2021/12/05 05:19:52;;;;;;;6.80;6.10;;;;;;;;;;5032638;28;20876;-56
2021/12/05 05:22:29;;;;;;;7.30;6.03;;;;;;;;;;5033052;28;20404;-53
2021/12/05 05:25:54;;;;;;;5.83;5.20;;;;;;;;;;5033104;28;20401;-52
2021/12/05 05:38:59;;;;;;;11.87;6.57;;;;;;;;;;5032896;28;20414;-56
2021/12/05 05:50:05;;;;;;;7.13;5.90;;;;;;;;;;5021373;28;20459;-56
2021/12/05 05:52:31;;;;;;;11.43;6.37;;;;;;;;;;5032520;28;20472;-55
2021/12/05 05:54:59;;;;;;;16.13;6.50;;;;;;;;;;5032374;28;20834;-54
2021/12/05 06:00:05;;;;;;;12.57;6.23;;;;;;;;;;5032750;28;20491;-54
2021/12/05 06:05:16;;;;;;;9.70;6.93;;;;;;;;;;5032784;28;20831;-55
2021/12/05 06:07:44;;;;;;;9.40;6.40;;;;;;;;;;5032365;28;20412;-55
2021/12/05 06:10:12;;;;;;;8.67;6.30;;;;;;;;;;5032305;28;20488;-55
2021/12/05 06:12:38;;;;;;;6.63;6.03;;;;;;;;;;5032659;28;20559;-53
2021/12/05 06:15:05;;;;;;;8.77;6.13;;;;;;;;;;5032379;28;20428;-56
2021/12/05 06:17:31;;;;;;;8.60;6.17;;;;;;;;;;5032324;28;20955;-52
2021/12/05 06:19:58;;;;;;;8.83;6.43;;;;;;;;;;5032078;28;20456;-55
2021/12/05 06:22:24;;;;;;;9.50;6.17;;;;;;;;;;5032308;28;20420;-53
2021/12/05 06:24:50;;;;;;;9.20;6.00;;;;;;;;;;5032376;28;20898;-52
2021/12/05 06:27:16;;;;;;;9.17;6.17;;;;;;;;;;5032372;28;20459;-53
2021/12/05 06:29:50;;;;;;;9.67;6.43;;;;;;;;;;5031069;28;20770;-53
2021/12/05 06:32:37;;;;;;;8.87;6.97;;;;;;;;;;5032106;28;20790;-54
2021/12/05 06:38:00;;;;;;;8.23;6.30;;;;;;;;;;5032364;28;20411;-53
2021/12/05 06:46:09;;;;;;;9.23;5.83;;;;;;;;;;5032425;28;20413;-52
2021/12/05 06:48:35;;;;;;;6.27;5.67;;;;;;;;;;5032023;28;20408;-53
2021/12/05 06:51:02;;;;;;;8.20;5.53;;;;;;;;;;5032476;28;20440;-55
2021/12/05 06:53:28;;;;;;;8.43;5.27;;;;;;;;;;5031932;28;20482;-52
2021/12/05 06:55:54;;;;;;;6.60;6.00;;;;;;;;;;5032187;28;20436;-55
2021/12/05 06:58:20;;;;;;;11.20;5.90;;;;;;;;;;5032198;28;20424;-53
2021/12/05 07:00:46;;;;;;;7.53;5.83;;;;;;;;;;5030830;28;20427;-52
2021/12/05 07:03:12;;;;;;;6.43;5.00;;;;;;;;;;5031995;28;20432;-52
2021/12/05 07:05:44;;;;;;;8.17;5.57;;;;;;;;;;5032020;28;20508;-54
2021/12/05 07:08:13;;;;;;;7.07;5.50;;;;;;;;;;5035812;28;20511;-53
2021/12/05 07:11:26;;;;;;;7.60;5.50;;;;;;;;;;5035895;28;20411;-54
2021/12/05 07:16:35;;;;;;;7.03;5.30;;;;;;;;;;5035362;28;20415;-53
2021/12/05 07:19:16;;;;;;;8.30;5.77;;;;;;;;;;5035249;28;20451;-53
2021/12/05 07:27:06;;;;;;;6.70;5.30;;;;;;;;;;5035117;28;20562;-53
2021/12/05 07:40:33;;;;;;;9.10;5.07;;;;;;;;;;5035300;28;20788;-52
2021/12/05 07:43:00;;;;;;;9.20;5.27;;;;;;;;;;5035031;28;20408;-54
2021/12/05 07:45:33;;;;;;;6.20;4.70;;;;;;;;;;5035192;28;20405;-52
2021/12/05 07:48:07;;;;;;;8.07;5.40;;;;;;;;;;5035039;28;20404;-53
2021/12/05 07:50:41;;;;;;;8.17;5.07;;;;;;;;;;5034899;28;20416;-58
2021/12/05 07:53:15;;;;;;;9.00;5.03;;;;;;;;;;5034898;28;20471;-57
2021/12/05 07:55:44;;;;;;;5.50;5.00;;;;;;;;;;5033505;28;20758;-56
2021/12/05 08:17:15;;;;;;;8.50;5.20;;;;;;;;;;5011991;28;20409;-56
2021/12/05 08:19:41;;;;;;;11.03;5.60;;;;;;;;;;5011959;28;21017;-56
2021/12/05 08:22:07;;;;;;;9.00;5.63;;;;;;;;;;5023721;28;20793;-53
2021/12/05 08:24:36;;;;;;;5.60;5.10;;;;;;;;;;5034216;28;20975;-56
2021/12/05 08:27:05;;;;;;;8.13;6.10;;;;;;;;;;5034038;28;20405;-54
2021/12/05 08:29:43;;;;;;;6.23;4.87;;;;;;;;;;5034156;28;20482;-53
2021/12/05 08:34:55;;;;;;;5.93;5.33;;;;;;;;;;5034365;28;20420;-55
2021/12/05 08:37:45;;;;;;;9.07;5.50;;;;;;;;;;5032726;28;20432;-58
2021/12/05 08:43:50;;;;;;;7.70;5.47;;;;;;;;;;5034301;28;20498;-53
2021/12/05 09:21:56;;;;;;;9.03;5.47;;;;;;;;;;5033348;28;20447;-55
2021/12/05 09:40:32;;;;;;;7.90;5.43;;;;;;;;;;5032766;28;20979;-58
2021/12/05 10:10:52;;;;;;;7.13;5.77;;;;;;;;;;5032150;28;20411;-53
2021/12/05 10:13:32;;;;;;;6.20;5.40;;;;;;;;;;5030714;28;20555;-53
2021/12/05 10:19:03;;;;;;;6.10;5.60;;;;;;;;;;5032224;28;20414;-52
2021/12/05 10:37:49;;;;;;;6.00;5.47;;;;;;;;;;5031921;28;20454;-52
2021/12/05 10:40:19;;;;;;;8.10;5.70;;;;;;;;;;5030446;28;20420;-52
2021/12/05 10:42:50;;;;;;;6.67;5.70;;;;;;;;;;5035654;28;20400;-53
2021/12/05 10:45:22;;;;;;;6.17;5.67;;;;;;;;;;5035772;28;20414;-54
2021/12/05 10:47:51;;;;;;;6.27;5.70;;;;;;;;;;5035937;28;20748;-54
2021/12/05 10:50:35;;;;;;;7.90;5.90;;;;;;;;;;5035725;28;20412;-52
2021/12/05 10:53:21;;;;;;;9.87;5.50;;;;;;;;;;5035737;28;20517;-52
2021/12/05 10:56:17;;;;;;;7.60;6.20;;;;;;;;;;5031859;28;20463;-56
2021/12/05 10:58:52;;;;;;;5.60;5.20;;;;;;;;;;5059127;28;20459;-53
2021/12/05 11:01:30;;;;;;;7.60;5.40;;;;;;;;;;5035763;28;20416;-55
2021/12/05 11:03:58;;;;;;;7.40;5.97;;;;;;;;;;5035734;28;20431;-54
2021/12/05 11:06:33;;;;;;;6.70;6.00;;;;;;;;;;5035363;28;20465;-53
2021/12/05 11:09:19;;;;;;;8.10;5.90;;;;;;;;;;5035444;28;20408;-56
2021/12/05 11:11:47;;;;;;;6.43;5.83;;;;;;;;;;5031776;28;20466;-53
2021/12/05 11:14:15;;;;;;;9.33;5.50;;;;;;;;;;5035269;28;20412;-54
2021/12/05 11:16:46;;;;;;;8.13;5.67;;;;;;;;;;5035590;28;20466;-53
2021/12/05 11:19:21;;;;;;;7.40;6.27;;;;;;;;;;5035173;28;20863;-55
2021/12/05 11:21:49;;;;;;;9.47;5.63;;;;;;;;;;5035054;28;21337;-54
2021/12/05 11:24:18;;;;;;;8.20;6.20;;;;;;;;;;5035173;28;20413;-56
2021/12/05 11:27:00;;;;;;;7.37;5.70;;;;;;;;;;5035214;28;20431;-57
2021/12/05 11:29:39;;;;;;;9.70;5.80;;;;;;;;;;5035200;28;20412;-54
2021/12/05 11:32:09;;;;;;;10.97;5.50;;;;;;;;;;5034926;28;20805;-55
2021/12/05 11:34:35;;;;;;;9.20;5.70;;;;;;;;;;5034637;28;20427;-57
2021/12/05 11:37:01;;;;;;;6.80;6.10;;;;;;;;;;5035149;28;20844;-56
2021/12/05 11:39:27;;;;;;;11.53;6.20;;;;;;;;;;5034709;28;20490;-59
2021/12/05 11:41:55;;;;;;;7.63;5.70;;;;;;;;;;5034892;28;20404;-53
2021/12/05 11:44:22;;;;;;;11.90;6.00;;;;;;;;;;5034826;28;20416;-55
2021/12/05 11:46:49;;;;;;;8.07;6.37;;;;;;;;;;5034494;28;20459;-56
2021/12/05 11:49:22;;;;;;;10.67;6.20;;;;;;;;;;5034690;28;20507;-56
2021/12/05 11:51:56;;;;;;;6.60;6.00;;;;;;;;;;5034634;28;20816;-54
2021/12/05 11:54:22;;;;;;;16.00;6.67;;;;;;;;;;5034766;28;20420;-52
2021/12/05 11:56:48;;;;;;;8.83;6.20;;;;;;;;;;5034707;28;20488;-54
2021/12/05 11:59:14;;;;;;;12.67;6.40;;;;;;;;;;5034695;28;20440;-52
2021/12/05 12:01:46;;;;;;;8.80;6.20;;;;;;;;;;5034498;28;20523;-54
2021/12/05 12:04:14;;;;;;;9.93;6.13;;;;;;;;;;5034414;28;20412;-53
2021/12/05 12:06:42;;;;;;;9.03;6.67;;;;;;;;;;5034088;28;20397;-56
2021/12/05 12:09:07;;;;;;;15.57;6.03;;;;;;;;;;5034134;28;20412;-53
2021/12/05 12:11:34;;;;;;;6.13;5.53;;;;;;;;;;5034067;28;20511;-54
2021/12/05 12:14:00;;;;;;;8.27;6.10;;;;;;;;;;5034404;28;20425;-52
2021/12/05 12:16:27;;;;;;;8.13;5.83;;;;;;;;;;5034198;28;20514;-57
2021/12/05 12:18:53;;;;;;;11.30;6.87;;;;;;;;;;5033955;28;20452;-53
2021/12/05 12:21:21;;;;;;;12.67;7.03;;;;;;;;;;5034107;28;20412;-54
2021/12/05 12:23:49;;;;;;;10.00;6.23;;;;;;;;;;5033730;28;20413;-55
2021/12/05 12:26:15;;;;;;;10.00;5.40;;;;;;;;;;5033830;28;20531;-54
2021/12/05 12:28:41;;;;;;;13.13;7.03;;;;;;;;;;5033663;28;20417;-54
2021/12/05 12:31:15;;;;;;;9.70;5.07;;;;;;;;;;5033799;28;20479;-54
2021/12/05 12:33:48;;;;;;;8.83;5.77;;;;;;;;;;5033773;28;20482;-53
2021/12/05 12:36:14;;;;;;;6.40;5.40;;;;;;;;;;5033593;28;20893;-56
2021/12/05 12:38:42;;;;;;;8.33;6.30;;;;;;;;;;5033660;28;20920;-53
2021/12/05 12:41:16;;;;;;;6.57;5.87;;;;;;;;;;5032053;28;20461;-56
2021/12/05 12:43:48;;;;;;;8.20;6.50;;;;;;;;;;5033276;28;20438;-58
2021/12/05 12:46:16;;;;;;;11.73;6.20;;;;;;;;;;5033582;28;20747;-53
2021/12/05 12:48:42;;;;;;;9.40;5.90;;;;;;;;;;5032655;28;20413;-54
2021/12/05 12:51:08;;;;;;;7.67;5.83;;;;;;;;;;5032372;28;20967;-53
2021/12/05 12:53:38;;;;;;;15.10;6.30;;;;;;;;;;5032016;28;20533;-52
2021/12/05 12:56:19;;;;;;;7.50;6.27;;;;;;;;;;5033650;28;20443;-55
2021/12/05 12:58:50;;;;;;;9.13;6.50;;;;;;;;;;5032009;28;20432;-53
2021/12/05 13:01:34;;;;;;;7.80;5.70;;;;;;;;;;5031923;28;20412;-53
2021/12/05 13:10:04;;;;;;;6.50;5.73;;;;;;;;;;5033460;28;20820;-53
2021/12/05 13:12:41;;;;;;;11.07;6.30;;;;;;;;;;5033098;28;20561;-53
2021/12/05 13:15:09;;;;;;;9.23;5.60;;;;;;;;;;5032880;28;20904;-53
2021/12/05 13:17:40;;;;;;;9.33;5.93;;;;;;;;;;5031680;28;20409;-53
2021/12/05 13:20:07;;;;;;;6.13;5.50;;;;;;;;;;5032612;28;20452;-54
2021/12/05 13:22:33;;;;;;;7.70;6.07;;;;;;;;;;5032512;28;20455;-55
2021/12/05 13:25:05;;;;;;;16.40;6.50;;;;;;;;;;5032753;28;20444;-56
2021/12/05 13:27:32;;;;;;;11.03;6.70;;;;;;;;;;5032403;28;20420;-52
2021/12/05 13:29:58;;;;;;;9.43;6.00;;;;;;;;;;5032339;28;20404;-52
2021/12/05 13:32:29;;;;;;;7.10;5.77;;;;;;;;;;5032444;28;20778;-53
2021/12/05 13:34:59;;;;;;;9.77;6.30;;;;;;;;;;5032241;28;20797;-55
2021/12/05 13:37:27;;;;;;;8.63;6.47;;;;;;;;;;5032644;28;20877;-55
2021/12/05 13:39:55;;;;;;;13.97;6.80;;;;;;;;;;5031239;28;20824;-57
2021/12/05 13:42:37;;;;;;;10.33;6.80;;;;;;;;;;5032267;28;20409;-54
2021/12/05 13:45:13;;;;;;;12.03;6.67;;;;;;;;;;5032222;28;20737;-53
2021/12/05 13:47:45;;;;;;;10.23;6.90;;;;;;;;;;5032186;28;20503;-54
2021/12/05 13:50:30;;;;;;;7.20;6.17;;;;;;;;;;5032006;28;20404;-54
2021/12/05 13:53:05;;;;;;;6.93;6.20;;;;;;;;;;5032373;28;20841;-53
2021/12/05 13:55:31;;;;;;;8.57;6.60;;;;;;;;;;5032417;28;20491;-54
2021/12/05 13:58:16;;;;;;;9.17;7.00;;;;;;;;;;5032186;28;20444;-54
2021/12/05 14:00:43;;;;;;;8.83;6.23;;;;;;;;;;5032225;28;20414;-54
2021/12/05 14:03:09;;;;;;;16.80;6.70;;;;;;;;;;5032174;28;20417;-54
2021/12/05 14:05:36;;;;;;;8.50;6.30;;;;;;;;;;5032229;28;20422;-55
2021/12/05 14:08:02;;;;;;;10.03;6.47;;;;;;;;;;5031990;28;20466;-57
2021/12/05 14:10:42;;;;;;;11.43;8.07;;;;;;;;;;5032085;28;20416;-55
2021/12/05 14:13:08;;;;;;;9.43;6.40;;;;;;;;;;5032434;28;20972;-57
2021/12/05 14:15:34;;;;;;;9.17;6.67;;;;;;;;;;5032120;28;20409;-56
2021/12/05 14:18:00;;;;;;;9.77;6.57;;;;;;;;;;5036193;28;20466;-56
2021/12/05 14:20:27;;;;;;;9.60;6.20;;;;;;;;;;5036297;28;20614;-57
2021/12/05 14:22:56;;;;;;;7.13;6.43;;;;;;;;;;5036302;28;20420;-59
2021/12/05 14:25:23;;;;;;;9.70;6.23;;;;;;;;;;5036242;28;20408;-55
2021/12/05 14:27:57;;;;;;;7.43;6.17;;;;;;;;;;5034754;28;20432;-57
2021/12/05 14:30:25;;;;;;;15.53;6.43;;;;;;;;;;5036281;28;20928;-56
2021/12/05 14:32:58;;;;;;;8.77;6.30;;;;;;;;;;5036036;28;20479;-57
2021/12/05 14:35:26;;;;;;;8.20;5.43;;;;;;;;;;5036346;28;20521;-56
2021/12/05 14:37:52;;;;;;;7.00;5.57;;;;;;;;;;5035003;28;20408;-54
2021/12/05 14:40:21;;;;;;;12.30;5.40;;;;;;;;;;5035904;28;20462;-56
2021/12/05 14:42:48;;;;;;;9.60;6.63;;;;;;;;;;5035821;28;20444;-59
2021/12/05 14:45:16;;;;;;;6.10;5.50;;;;;;;;;;5035776;28;20412;-57
2021/12/05 14:47:43;;;;;;;9.57;5.90;;;;;;;;;;5035284;28;20466;-54
2021/12/05 14:50:40;;;;;;;9.37;5.70;;;;;;;;;;5035591;28;20400;-56
2021/12/05 14:53:07;;;;;;;7.10;5.10;;;;;;;;;;5030883;28;20487;-57
2021/12/05 14:55:35;;;;;;;6.43;5.80;;;;;;;;;;5035815;28;20414;-57
2021/12/05 14:58:05;;;;;;;10.27;6.13;;;;;;;;;;5035774;28;20409;-60
2021/12/05 15:00:37;;;;;;;13.93;6.30;;;;;;;;;;5036148;28;20409;-58
2021/12/05 15:03:13;;;;;;;14.60;6.27;;;;;;;;;;5035881;28;20496;-54
2021/12/05 15:05:41;;;;;;;12.90;6.00;;;;;;;;;;5035899;28;20416;-66
2021/12/05 15:08:10;;;;;;;9.70;5.77;;;;;;;;;;5035535;28;20462;-54
2021/12/05 15:10:37;;;;;;;10.40;5.90;;;;;;;;;;5034404;28;20428;-54
2021/12/05 15:13:03;;;;;;;6.53;5.90;;;;;;;;;;5035604;28;20475;-55
2021/12/05 15:15:29;;;;;;;9.13;6.17;;;;;;;;;;5034267;28;20423;-57
2021/12/05 15:17:56;;;;;;;12.77;6.40;;;;;;;;;;5035573;28;20491;-54
2021/12/05 15:20:27;;;;;;;8.47;6.50;;;;;;;;;;5035264;28;20460;-57
2021/12/05 15:22:55;;;;;;;9.63;6.17;;;;;;;;;;5034182;28;20948;-54
2021/12/05 15:25:22;;;;;;;10.87;6.37;;;;;;;;;;5035564;28;20412;-53
2021/12/05 15:27:49;;;;;;;9.40;6.10;;;;;;;;;;5035152;28;20444;-55
2021/12/05 15:30:20;;;;;;;9.23;6.20;;;;;;;;;;5034337;28;20412;-55
2021/12/05 15:32:47;;;;;;;10.87;7.30;;;;;;;;;;5035269;28;20550;-56
2021/12/05 15:35:15;;;;;;;11.03;6.50;;;;;;;;;;5035261;28;20963;-54
2021/12/05 15:37:49;;;;;;;15.33;7.03;;;;;;;;;;5035608;28;20809;-56
2021/12/05 15:40:15;;;;;;;15.20;8.63;;;;;;;;;;5035186;28;20971;-52
2021/12/05 15:42:41;;;;;;;13.40;6.53;;;;;;;;;;5035097;28;20474;-58
2021/12/05 15:45:09;;;;;;;9.00;6.47;;;;;;;;;;5043304;28;20420;-55
2021/12/05 15:47:36;;;;;;;9.03;6.77;;;;;;;;;;5044901;28;20400;-57
2021/12/05 15:50:07;;;;;;;9.70;7.80;;;;;;;;;;5054260;28;20403;-54
2021/12/05 15:52:35;;;;;;;10.50;7.50;;;;;;;;;;5044229;28;20475;-55
2021/12/05 15:55:03;;;;;;;12.00;8.10;;;;;;;;;;5045260;28;20423;-57
2021/12/05 15:57:34;;;;;;;16.70;7.90;;;;;;;;;;5043707;28;20415;-53
2021/12/05 16:00:02;;;;;;;21.50;8.43;;;;;;;;;;5043456;28;20408;-54
2021/12/05 16:02:28;;;;;;;14.87;7.60;;;;;;;;;;5051901;28;20415;-57
2021/12/05 16:04:56;;;;;;;11.40;8.70;;;;;;;;;;5054403;28;20408;-55
2021/12/05 16:07:25;;;;;;;22.53;10.67;;;;;;;;;;5041599;28;20917;-53
2021/12/05 16:09:50;;;;;;;21.07;12.33;;;;;;;;;;5053353;28;20418;-55
2021/12/05 16:12:21;;;;;;;24.27;15.03;;;;;;;;;;5051040;28;20463;-55
2021/12/05 16:14:49;;;;;;;27.43;15.17;;;;;;;;;;5053735;28;20510;-54
2021/12/05 16:17:18;;;;;;;25.80;14.87;;;;;;;;;;5052398;28;20416;-53
2021/12/05 16:20:03;;;;;;;29.90;15.03;;;;;;;;;;5053413;28;20860;-57
2021/12/05 16:22:29;;;;;;;32.67;17.17;;;;;;;;;;5052756;28;20414;-56
2021/12/05 16:24:55;;;;;;;33.07;17.13;;;;;;;;;;5053297;28;20498;-55
2021/12/05 16:27:21;;;;;;;31.80;17.73;;;;;;;;;;5047717;28;20845;-53
2021/12/05 16:29:47;;;;;;;34.87;15.60;;;;;;;;;;5068656;28;20409;-54
2021/12/05 16:32:14;;;;;;;29.60;14.27;;;;;;;;;;5034133;28;20967;-53
2021/12/05 16:34:46;;;;;;;19.93;12.80;;;;;;;;;;5034264;28;20420;-56
2021/12/05 16:37:13;;;;;;;27.60;14.70;;;;;;;;;;5034025;28;20409;-57
2021/12/05 16:39:43;;;;;;;25.17;14.70;;;;;;;;;;5033114;28;20423;-57
2021/12/05 16:42:12;;;;;;;27.23;15.60;;;;;;;;;;5033914;28;20412;-56
2021/12/05 16:44:40;;;;;;;29.87;16.77;;;;;;;;;;5033836;28;20464;-58
2021/12/05 16:47:10;;;;;;;23.70;14.33;;;;;;;;;;5033407;28;20409;-55
2021/12/05 16:49:39;;;;;;;21.93;14.50;;;;;;;;;;5033392;28;20409;-56
2021/12/05 16:52:16;;;;;;;21.43;13.93;;;;;;;;;;5033228;28;20499;-56
2021/12/05 16:54:46;;;;;;;21.23;13.77;;;;;;;;;;5033339;28;20400;-56
2021/12/05 16:57:18;;;;;;;18.87;12.90;;;;;;;;;;5033307;28;20409;-63
2021/12/05 16:59:49;;;;;;;18.73;11.60;;;;;;;;;;5033413;28;20470;-62
2021/12/05 17:02:27;;;;;;;18.77;10.87;;;;;;;;;;5033101;28;20400;-61
2021/12/05 17:05:00;;;;;;;18.53;11.53;;;;;;;;;;5033545;28;20420;-63
2021/12/05 17:07:40;;;;;;;21.40;10.50;;;;;;;;;;5033222;28;20405;-62
2021/12/05 17:10:08;;;;;;;16.10;9.17;;;;;;;;;;5033180;28;20474;-54
2021/12/05 17:12:34;;;;;;;5.63;5.00;;;;;;;;;;5032861;28;20464;-63
2021/12/05 17:15:14;;;;;;;9.30;5.87;;;;;;;;;;5032975;28;20404;-62
2021/12/05 17:17:41;;;;;;;8.47;5.97;;;;;;;;;;5031830;28;20507;-62
2021/12/05 17:20:19;;;;;;;10.83;6.30;;;;;;;;;;5032694;28;20482;-64
2021/12/05 17:23:08;;;;;;;11.80;6.77;;;;;;;;;;5032744;28;20921;-56
2021/12/05 17:25:45;;;;;;;11.53;5.37;;;;;;;;;;5029741;28;20456;-54
2021/12/05 17:28:15;;;;;;;8.23;4.97;;;;;;;;;;5032809;28;20801;-58
2021/12/05 17:30:55;;;;;;;5.67;4.63;;;;;;;;;;5032612;28;20411;-63
2021/12/05 17:33:30;;;;;;;5.90;5.33;;;;;;;;;;5037776;28;20503;-54
2021/12/05 17:35:57;;;;;;;9.27;5.17;;;;;;;;;;5051116;28;20415;-55
2021/12/05 17:38:34;;;;;;;9.47;4.80;;;;;;;;;;5052655;28;20411;-54
2021/12/05 17:41:00;;;;;;;11.17;4.77;;;;;;;;;;5052624;28;20433;-58
2021/12/05 17:43:26;;;;;;;11.57;5.90;;;;;;;;;;5052526;28;20488;-55
2021/12/05 17:45:52;;;;;;;7.80;5.77;;;;;;;;;;5052572;28;20407;-53
2021/12/05 17:48:18;;;;;;;13.37;5.80;;;;;;;;;;5052358;28;20499;-54
2021/12/05 17:50:44;;;;;;;5.93;5.23;;;;;;;;;;5052047;28;20472;-59
2021/12/05 17:53:11;;;;;;;7.57;5.80;;;;;;;;;;5052229;28;20463;-54
2021/12/05 17:55:44;;;;;;;7.43;4.80;;;;;;;;;;5052180;28;20490;-57
2021/12/05 17:58:34;;;;;;;5.80;5.20;;;;;;;;;;5052032;28;20415;-52
2021/12/05 18:03:46;;;;;;;9.80;5.27;;;;;;;;;;5028161;28;20503;-54
2021/12/05 18:06:12;;;;;;;6.27;4.50;;;;;;;;;;5042602;28;20399;-56
2021/12/05 18:08:40;;;;;;;4.87;4.43;;;;;;;;;;5041173;28;20400;-55
2021/12/05 18:11:11;;;;;;;12.50;4.93;;;;;;;;;;5041334;28;20500;-54
2021/12/05 18:13:40;;;;;;;13.40;4.50;;;;;;;;;;5038618;28;20467;-52
2021/12/05 18:16:13;;;;;;;7.50;5.00;;;;;;;;;;5044411;28;20495;-55
2021/12/05 18:18:39;;;;;;;7.27;4.30;;;;;;;;;;5077518;28;20493;-54
2021/12/05 18:21:06;;;;;;;5.07;4.63;;;;;;;;;;5048583;28;20417;-55
2021/12/05 18:23:33;;;;;;;5.80;4.90;;;;;;;;;;5051922;28;20408;-56
2021/12/05 18:25:59;;;;;;;7.90;4.60;;;;;;;;;;5051946;28;20762;-55
2021/12/05 18:28:25;;;;;;;5.73;4.53;;;;;;;;;;5051936;28;20639;-57
2021/12/05 18:30:51;;;;;;;6.67;4.63;;;;;;;;;;5051922;28;20402;-56
2021/12/05 18:33:21;;;;;;;8.60;5.77;;;;;;;;;;5051786;28;20467;-55
2021/12/05 18:35:48;;;;;;;5.00;4.60;;;;;;;;;;5052157;28;20412;-55
2021/12/05 18:38:15;;;;;;;6.60;4.77;;;;;;;;;;5050574;28;20431;-57
2021/12/05 18:40:43;;;;;;;4.70;4.40;;;;;;;;;;5050437;28;20414;-57
2021/12/05 18:43:10;;;;;;;7.50;5.37;;;;;;;;;;5051720;28;20455;-54
2021/12/05 18:45:39;;;;;;;6.50;4.87;;;;;;;;;;5052078;28;20403;-54
2021/12/05 18:48:06;;;;;;;11.50;6.40;;;;;;;;;;5051633;28;20412;-57
2021/12/05 18:50:32;;;;;;;7.30;5.30;;;;;;;;;;5051792;28;20465;-59
2021/12/05 18:52:58;;;;;;;8.70;5.90;;;;;;;;;;5051488;28;20585;-55
2021/12/05 18:55:25;;;;;;;9.00;5.70;;;;;;;;;;5051892;28;20808;-56
2021/12/05 18:57:54;;;;;;;6.63;6.00;;;;;;;;;;5051360;28;20419;-55
2021/12/05 19:00:37;;;;;;;11.63;6.63;;;;;;;;;;5051683;28;20416;-56
2021/12/05 19:05:56;;;;;;;6.03;5.50;;;;;;;;;;5046170;28;20423;-55
2021/12/05 19:13:40;;;;;;;8.27;7.40;;;;;;;;;;5035351;28;20474;-57
2021/12/05 19:16:06;;;;;;;8.23;6.60;;;;;;;;;;5035308;28;20817;-54
2021/12/05 19:18:33;;;;;;;12.80;7.97;;;;;;;;;;5035012;28;20427;-57
2021/12/05 19:20:59;;;;;;;8.67;7.33;;;;;;;;;;5035121;28;20487;-59
2021/12/05 19:23:26;;;;;;;11.60;6.67;;;;;;;;;;5036523;28;20427;-53
2021/12/05 19:25:52;;;;;;;10.47;8.00;;;;;;;;;;5046128;28;20415;-52
2021/12/05 19:28:18;;;;;;;11.77;8.17;;;;;;;;;;5079883;28;20427;-55
2021/12/05 19:30:49;;;;;;;11.63;8.50;;;;;;;;;;5034288;28;20443;-53
2021/12/05 19:33:16;;;;;;;18.00;11.27;;;;;;;;;;5034748;28;20578;-50
2021/12/05 19:35:42;;;;;;;20.63;11.73;;;;;;;;;;5034695;28;20432;-52
2021/12/05 19:38:10;;;;;;;29.47;15.70;;;;;;;;;;5035220;28;20408;-52
2021/12/05 19:40:36;;;;;;;23.27;13.40;;;;;;;;;;5035037;28;20474;-54
2021/12/05 19:43:03;;;;;;;20.03;11.40;;;;;;;;;;5067134;28;20417;-55
2021/12/05 19:45:31;;;;;;;19.60;10.70;;;;;;;;;;5034871;28;20415;-53
2021/12/05 19:47:58;;;;;;;18.97;10.20;;;;;;;;;;5034812;28;20778;-57
2021/12/05 19:50:27;;;;;;;18.70;11.40;;;;;;;;;;5035196;28;20751;-52
2021/12/05 19:52:54;;;;;;;20.07;10.37;;;;;;;;;;5035249;28;20934;-56
2021/12/05 19:55:20;;;;;;;20.70;12.10;;;;;;;;;;5034939;28;20409;-55
2021/12/05 19:57:47;;;;;;;20.20;12.97;;;;;;;;;;5034568;28;20444;-55